Hobbsville, North Carolina
Current Conditions -  °F | °C
As of 12:15 PM on Thursday 27 Nov 2014 (Local Time) from KEDE Reporting Station
Scattered Clouds Scattered Clouds  
Wind Chill: 50°   Ceiling: Unl
Heat Index: 50°   Visibility: 10mi
Dew Point: 42°   Wind: 3mph
Humidity: 74%   Direction: 90°E
Pressure: 29.99"   Gusts: NA
Location:  36.35°N, 76.6°W
Report Text: KEDE 271715Z AUTO 09003KT 10SM SCT085 10/05 A2999 RMK AO2 T00990054
Loading
Personal Weather Stations






























Interactive Weather Map New forecast layout! Learn more

10-Day Weather Forecast

Advertisements
Track Severe Weather on mobile